Terminal Aerodrome Forecast
Issued by NWS Hastings, NE

Home | Current Version | Previous Version | Text Only | Print | Product List | Glossary On
Versions: 1 2 3 4 5 6 7 8 9 10 11 12 13 14 15 16 17 18 19 20 21 22 23 24 25 26
000
FTUS43 KGID 261720
TAFGRI
TAF
KGRI 261720Z 2618/2718 12009KT P6SM SCT030 BKN110
     FM270000 14009KT P6SM VCTS SCT020CB OVC060
     FM270600 14005KT 5SM BR VCTS OVC025CB
     FM270900 18006KT 1SM BR OVC008
     FM271200 00000KT 1SM BR OVC003
     FM271500 23004KT P6SM BKN008
     FM271700 18005KT P6SM SCT020=

USA.gov is the U.S. government's official web portal to all federal, state and local government web resources and services.